sensor_id;sensor_type;location;lat;lon;timestamp;pressure;altitude;pressure_sealevel;temperature;humidity
6024;BME280;3040;42.654;23.296;2023-01-15T00:01:27;94635.56;;;5.84;77.20
6024;BME280;3040;42.654;23.296;2023-01-15T00:03:58;94619.78;;;5.43;78.30
6024;BME280;3040;42.654;23.296;2023-01-15T00:06:26;94632.06;;;5.88;77.58
6024;BME280;3040;42.654;23.296;2023-01-15T00:08:53;94627.63;;;5.97;77.48
6024;BME280;3040;42.654;23.296;2023-01-15T00:11:21;94637.66;;;6.09;76.65
6024;BME280;3040;42.654;23.296;2023-01-15T00:13:49;94629.50;;;5.97;76.88
6024;BME280;3040;42.654;23.296;2023-01-15T00:16:18;94602.59;;;4.77;80.82
6024;BME280;3040;42.654;23.296;2023-01-15T00:18:48;94632.03;;;4.52;83.33
6024;BME280;3040;42.654;23.296;2023-01-15T00:21:17;94527.47;;;3.74;83.76
6024;BME280;3040;42.654;23.296;2023-01-15T00:23:45;94635.88;;;4.40;85.17
6024;BME280;3040;42.654;23.296;2023-01-15T00:26:31;94637.44;;;4.41;85.84
6024;BME280;3040;42.654;23.296;2023-01-15T00:29:16;94632.53;;;4.21;86.28
6024;BME280;3040;42.654;23.296;2023-01-15T00:31:53;94630.38;;;4.23;86.25
6024;BME280;3040;42.654;23.296;2023-01-15T00:34:21;94583.53;;;3.88;86.49
6024;BME280;3040;42.654;23.296;2023-01-15T00:36:50;94632.63;;;4.30;86.75
6024;BME280;3040;42.654;23.296;2023-01-15T00:39:17;94650.06;;;4.44;85.69
6024;BME280;3040;42.654;23.296;2023-01-15T00:41:44;94618.44;;;4.12;86.10
6024;BME280;3040;42.654;23.296;2023-01-15T00:44:11;94611.69;;;3.87;87.00
6024;BME280;3040;42.654;23.296;2023-01-15T00:46:38;94651.59;;;4.13;86.81
6024;BME280;3040;42.654;23.296;2023-01-15T00:49:05;94627.22;;;3.89;87.88
6024;BME280;3040;42.654;23.296;2023-01-15T00:51:32;94619.16;;;3.99;87.63
6024;BME280;3040;42.654;23.296;2023-01-15T00:54:00;94612.84;;;3.81;87.61
6024;BME280;3040;42.654;23.296;2023-01-15T00:56:27;94630.97;;;3.83;88.11
6024;BME280;3040;42.654;23.296;2023-01-15T00:58:54;94630.63;;;3.71;89.18
6024;BME280;3040;42.654;23.296;2023-01-15T01:01:21;94618.44;;;3.56;89.11
6024;BME280;3040;42.654;23.296;2023-01-15T01:03:48;94625.72;;;3.64;89.08
6024;BME280;3040;42.654;23.296;2023-01-15T01:06:17;94630.34;;;3.72;89.19
6024;BME280;3040;42.654;23.296;2023-01-15T01:08:45;94608.53;;;3.72;88.65
6024;BME280;3040;42.654;23.296;2023-01-15T01:11:15;94629.06;;;3.88;88.71
6024;BME280;3040;42.654;23.296;2023-01-15T01:13:42;94602.53;;;3.47;89.65
6024;BME280;3040;42.654;23.296;2023-01-15T01:16:28;94625.44;;;3.84;89.13
6024;BME280;3040;42.654;23.296;2023-01-15T01:18:58;94607.38;;;3.78;89.97
6024;BME280;3040;42.654;23.296;2023-01-15T01:21:26;94621.59;;;3.77;90.06
6024;BME280;3040;42.654;23.296;2023-01-15T01:23:53;94495.81;;;3.09;89.27
6024;BME280;3040;42.654;23.296;2023-01-15T01:26:22;94621.22;;;4.02;89.37
6024;BME280;3040;42.654;23.296;2023-01-15T01:28:49;94608.06;;;4.21;88.27
6024;BME280;3040;42.654;23.296;2023-01-15T01:31:17;94612.25;;;4.22;87.27
6024;BME280;3040;42.654;23.296;2023-01-15T01:33:47;94610.00;;;4.29;87.30
6024;BME280;3040;42.654;23.296;2023-01-15T01:36:14;94602.88;;;4.16;87.44
6024;BME280;3040;42.654;23.296;2023-01-15T01:38:41;94599.59;;;4.05;87.79
6024;BME280;3040;42.654;23.296;2023-01-15T01:41:08;94614.75;;;4.13;88.08
6024;BME280;3040;42.654;23.296;2023-01-15T01:43:52;94610.34;;;4.08;87.42
6024;BME280;3040;42.654;23.296;2023-01-15T01:46:20;94614.25;;;3.92;87.73
6024;BME280;3040;42.654;23.296;2023-01-15T01:48:49;94614.63;;;3.86;88.58
6024;BME280;3040;42.654;23.296;2023-01-15T01:51:19;94615.69;;;3.85;89.21
6024;BME280;3040;42.654;23.296;2023-01-15T01:53:48;94615.28;;;3.78;89.47
6024;BME280;3040;42.654;23.296;2023-01-15T01:56:15;94604.16;;;3.62;90.20
6024;BME280;3040;42.654;23.296;2023-01-15T01:58:46;94596.00;;;3.63;90.43
6024;BME280;3040;42.654;23.296;2023-01-15T02:01:16;94609.06;;;3.68;90.38
6024;BME280;3040;42.654;23.296;2023-01-15T02:03:43;94605.53;;;3.59;90.82
6024;BME280;3040;42.654;23.296;2023-01-15T02:06:12;94605.66;;;3.49;90.02
6024;BME280;3040;42.654;23.296;2023-01-15T02:08:40;94604.31;;;3.52;90.95
6024;BME280;3040;42.654;23.296;2023-01-15T02:11:13;94610.84;;;3.54;90.92
6024;BME280;3040;42.654;23.296;2023-01-15T02:13:43;94606.72;;;3.48;90.78
6024;BME280;3040;42.654;23.296;2023-01-15T02:16:20;94603.44;;;3.56;90.88
6024;BME280;3040;42.654;23.296;2023-01-15T02:18:54;94602.63;;;3.61;90.62
6024;BME280;3040;42.654;23.296;2023-01-15T02:21:27;94596.00;;;3.82;89.96
6024;BME280;3040;42.654;23.296;2023-01-15T02:24:05;94596.28;;;3.81;88.95
6024;BME280;3040;42.654;23.296;2023-01-15T02:29:45;94572.25;;;3.50;90.05
6024;BME280;3040;42.654;23.296;2023-01-15T02:32:17;94596.06;;;3.58;90.19
6024;BME280;3040;42.654;23.296;2023-01-15T02:34:49;94574.81;;;3.36;90.62
6024;BME280;3040;42.654;23.296;2023-01-15T02:37:22;94591.31;;;3.60;91.04
6024;BME280;3040;42.654;23.296;2023-01-15T02:39:52;94592.38;;;3.78;89.83
6024;BME280;3040;42.654;23.296;2023-01-15T02:42:22;94585.97;;;3.84;89.43
6024;BME280;3040;42.654;23.296;2023-01-15T02:44:51;94581.28;;;3.81;88.83
6024;BME280;3040;42.654;23.296;2023-01-15T02:47:24;94583.72;;;3.78;88.36
6024;BME280;3040;42.654;23.296;2023-01-15T02:49:54;94572.09;;;3.97;88.17
6024;BME280;3040;42.654;23.296;2023-01-15T02:52:24;94581.28;;;4.32;86.42
6024;BME280;3040;42.654;23.296;2023-01-15T02:54:58;94583.38;;;4.90;84.41
6024;BME280;3040;42.654;23.296;2023-01-15T02:57:29;94571.19;;;4.67;82.96
6024;BME280;3040;42.654;23.296;2023-01-15T03:00:00;94580.31;;;4.42;84.20
6024;BME280;3040;42.654;23.296;2023-01-15T03:02:33;94554.72;;;4.15;85.40
6024;BME280;3040;42.654;23.296;2023-01-15T03:05:06;94575.50;;;4.90;84.10
6024;BME280;3040;42.654;23.296;2023-01-15T03:07:36;94582.22;;;5.23;82.26
6024;BME280;3040;42.654;23.296;2023-01-15T03:10:07;94582.56;;;5.58;80.57
6024;BME280;3040;42.654;23.296;2023-01-15T03:12:40;94556.84;;;5.63;80.16
6024;BME280;3040;42.654;23.296;2023-01-15T03:15:24;94565.78;;;5.90;79.43
6024;BME280;3040;42.654;23.296;2023-01-15T03:18:08;94587.56;;;6.18;78.51
6024;BME280;3040;42.654;23.296;2023-01-15T03:20:43;94589.88;;;6.33;77.53
6024;BME280;3040;42.654;23.296;2023-01-15T03:23:15;94598.47;;;6.47;76.79
6024;BME280;3040;42.654;23.296;2023-01-15T03:25:46;94587.91;;;6.47;76.64
6024;BME280;3040;42.654;23.296;2023-01-15T03:28:20;94586.28;;;6.60;76.07
6024;BME280;3040;42.654;23.296;2023-01-15T03:30:47;94591.00;;;6.71;75.34
6024;BME280;3040;42.654;23.296;2023-01-15T03:33:14;94586.66;;;6.75;74.89
6024;BME280;3040;42.654;23.296;2023-01-15T03:35:46;94542.84;;;6.43;74.96
6024;BME280;3040;42.654;23.296;2023-01-15T03:38:14;94592.69;;;6.67;74.45
6024;BME280;3040;42.654;23.296;2023-01-15T03:40:51;94584.34;;;6.21;77.34
6024;BME280;3040;42.654;23.296;2023-01-15T03:43:29;94572.69;;;6.22;76.76
6024;BME280;3040;42.654;23.296;2023-01-15T03:46:13;94594.09;;;6.42;76.44
6024;BME280;3040;42.654;23.296;2023-01-15T03:48:45;94592.97;;;6.35;75.91
6024;BME280;3040;42.654;23.296;2023-01-15T03:51:19;94581.25;;;6.27;76.32
6024;BME280;3040;42.654;23.296;2023-01-15T03:53:49;94598.53;;;6.33;76.46
6024;BME280;3040;42.654;23.296;2023-01-15T03:56:23;94495.88;;;5.65;76.37
6024;BME280;3040;42.654;23.296;2023-01-15T03:59:00;94597.66;;;6.38;76.80
6024;BME280;3040;42.654;23.296;2023-01-15T04:01:32;94595.84;;;6.47;75.41
6024;BME280;3040;42.654;23.296;2023-01-15T04:04:01;94593.69;;;6.49;75.68
6024;BME280;3040;42.654;23.296;2023-01-15T04:06:29;94597.41;;;6.48;75.53
6024;BME280;3040;42.654;23.296;2023-01-15T04:08:58;94595.53;;;6.48;74.64
6024;BME280;3040;42.654;23.296;2023-01-15T04:11:26;94558.59;;;6.26;74.80
6024;BME280;3040;42.654;23.296;2023-01-15T04:13:53;94590.91;;;6.54;74.92
6024;BME280;3040;42.654;23.296;2023-01-15T04:16:23;94587.78;;;6.52;74.99
6024;BME280;3040;42.654;23.296;2023-01-15T04:18:51;94498.13;;;5.94;74.94
6024;BME280;3040;42.654;23.296;2023-01-15T04:21:18;94580.63;;;6.52;74.49
6024;BME280;3040;42.654;23.296;2023-01-15T04:23:45;94503.34;;;6.07;74.50
6024;BME280;3040;42.654;23.296;2023-01-15T04:26:13;94586.94;;;6.65;74.16
6024;BME280;3040;42.654;23.296;2023-01-15T04:28:40;94592.88;;;6.71;73.71
6024;BME280;3040;42.654;23.296;2023-01-15T04:31:07;94591.94;;;6.75;73.59
6024;BME280;3040;42.654;23.296;2023-01-15T04:33:36;94598.19;;;6.79;73.55
6024;BME280;3040;42.654;23.296;2023-01-15T04:36:04;94597.56;;;6.82;73.53
6024;BME280;3040;42.654;23.296;2023-01-15T04:38:31;94599.94;;;6.84;73.57
6024;BME280;3040;42.654;23.296;2023-01-15T04:41:00;94482.81;;;6.04;73.22
6024;BME280;3040;42.654;23.296;2023-01-15T04:43:44;94602.97;;;6.69;73.47
6024;BME280;3040;42.654;23.296;2023-01-15T04:46:29;94588.13;;;6.59;73.91
6024;BME280;3040;42.654;23.296;2023-01-15T04:48:57;94606.50;;;6.64;73.72
6024;BME280;3040;42.654;23.296;2023-01-15T04:51:24;94593.41;;;6.59;73.63
6024;BME280;3040;42.654;23.296;2023-01-15T04:53:51;94604.00;;;6.59;73.58
6024;BME280;3040;42.654;23.296;2023-01-15T04:56:18;94582.16;;;6.45;73.47
6024;BME280;3040;42.654;23.296;2023-01-15T04:58:45;94602.44;;;6.58;73.89
6024;BME280;3040;42.654;23.296;2023-01-15T05:01:13;94575.31;;;6.44;73.26
6024;BME280;3040;42.654;23.296;2023-01-15T05:03:42;94614.56;;;6.59;73.10
6024;BME280;3040;42.654;23.296;2023-01-15T05:06:10;94610.84;;;6.60;73.46
6024;BME280;3040;42.654;23.296;2023-01-15T05:08:38;94599.50;;;6.60;72.96
6024;BME280;3040;42.654;23.296;2023-01-15T05:11:06;94602.44;;;6.58;72.87
6024;BME280;3040;42.654;23.296;2023-01-15T05:13:33;94599.41;;;6.42;73.04
6024;BME280;3040;42.654;23.296;2023-01-15T05:16:11;94606.31;;;6.30;73.77
6024;BME280;3040;42.654;23.296;2023-01-15T05:18:38;94615.19;;;6.11;74.14
6024;BME280;3040;42.654;23.296;2023-01-15T05:21:05;94611.91;;;5.92;74.39
6024;BME280;3040;42.654;23.296;2023-01-15T05:23:34;94603.81;;;5.75;75.38
6024;BME280;3040;42.654;23.296;2023-01-15T05:26:02;94602.97;;;5.66;74.54
6024;BME280;3040;42.654;23.296;2023-01-15T05:28:30;94602.69;;;5.54;75.13
6024;BME280;3040;42.654;23.296;2023-01-15T05:30:57;94600.63;;;5.51;75.10
6024;BME280;3040;42.654;23.296;2023-01-15T05:33:24;94578.31;;;5.35;75.64
6024;BME280;3040;42.654;23.296;2023-01-15T05:35:51;94603.97;;;5.43;75.60
6024;BME280;3040;42.654;23.296;2023-01-15T05:38:17;94605.25;;;5.31;75.75
6024;BME280;3040;42.654;23.296;2023-01-15T05:40:46;94600.69;;;5.23;76.32
6024;BME280;3040;42.654;23.296;2023-01-15T05:43:12;94601.66;;;5.27;75.47
6024;BME280;3040;42.654;23.296;2023-01-15T05:45:39;94587.41;;;5.28;75.33
6024;BME280;3040;42.654;23.296;2023-01-15T05:48:06;94611.34;;;4.59;77.71
6024;BME280;3040;42.654;23.296;2023-01-15T05:50:33;94481.03;;;3.83;78.32
6024;BME280;3040;42.654;23.296;2023-01-15T05:53:00;94609.19;;;4.93;77.32
6024;BME280;3040;42.654;23.296;2023-01-15T05:55:27;94612.47;;;4.85;77.47
6024;BME280;3040;42.654;23.296;2023-01-15T05:57:55;94612.34;;;4.63;77.20
6024;BME280;3040;42.654;23.296;2023-01-15T06:00:23;94615.09;;;4.06;80.78
6024;BME280;3040;42.654;23.296;2023-01-15T06:02:50;94618.56;;;4.53;79.24
6024;BME280;3040;42.654;23.296;2023-01-15T06:05:17;94567.69;;;3.93;79.94
6024;BME280;3040;42.654;23.296;2023-01-15T06:07:47;94609.31;;;4.23;80.42
6024;BME280;3040;42.654;23.296;2023-01-15T06:10:15;94619.19;;;4.64;79.25
6024;BME280;3040;42.654;23.296;2023-01-15T06:12:42;94614.84;;;3.89;82.19
6024;BME280;3040;42.654;23.296;2023-01-15T06:15:11;94613.16;;;3.80;83.51
6024;BME280;3040;42.654;23.296;2023-01-15T06:17:38;94510.88;;;3.59;81.17
6024;BME280;3040;42.654;23.296;2023-01-15T06:20:06;94609.41;;;4.50;80.36
6024;BME280;3040;42.654;23.296;2023-01-15T06:22:33;94606.03;;;4.64;80.37
6024;BME280;3040;42.654;23.296;2023-01-15T06:25:01;94617.94;;;4.88;79.67
6024;BME280;3040;42.654;23.296;2023-01-15T06:27:28;94609.16;;;5.07;78.79
6024;BME280;3040;42.654;23.296;2023-01-15T06:29:55;94584.84;;;4.96;77.77
6024;BME280;3040;42.654;23.296;2023-01-15T06:32:25;94598.72;;;4.74;79.10
6024;BME280;3040;42.654;23.296;2023-01-15T06:34:52;94602.22;;;4.70;79.80
6024;BME280;3040;42.654;23.296;2023-01-15T06:37:19;94610.66;;;4.99;79.20
6024;BME280;3040;42.654;23.296;2023-01-15T06:39:46;94608.50;;;5.15;78.07
6024;BME280;3040;42.654;23.296;2023-01-15T06:42:12;94612.09;;;5.32;77.27
6024;BME280;3040;42.654;23.296;2023-01-15T06:44:56;94612.25;;;5.50;76.21
6024;BME280;3040;42.654;23.296;2023-01-15T06:47:42;94610.22;;;5.60;76.50
6024;BME280;3040;42.654;23.296;2023-01-15T06:50:10;94612.91;;;5.69;76.02
6024;BME280;3040;42.654;23.296;2023-01-15T06:52:38;94613.31;;;5.76;76.04
6024;BME280;3040;42.654;23.296;2023-01-15T06:55:05;94611.31;;;5.82;75.58
6024;BME280;3040;42.654;23.296;2023-01-15T06:57:33;94525.75;;;5.24;75.30
6024;BME280;3040;42.654;23.296;2023-01-15T07:00:00;94608.81;;;5.90;75.62
6024;BME280;3040;42.654;23.296;2023-01-15T07:02:27;94604.19;;;5.96;75.82
6024;BME280;3040;42.654;23.296;2023-01-15T07:04:55;94573.03;;;5.84;74.60
6024;BME280;3040;42.654;23.296;2023-01-15T07:07:22;94585.31;;;6.02;75.13
6024;BME280;3040;42.654;23.296;2023-01-15T07:09:49;94614.63;;;6.23;74.71
6024;BME280;3040;42.654;23.296;2023-01-15T07:12:16;94593.09;;;6.07;74.33
6024;BME280;3040;42.654;23.296;2023-01-15T07:14:43;94614.94;;;6.22;74.64
6024;BME280;3040;42.654;23.296;2023-01-15T07:17:10;94605.94;;;6.00;73.88
6024;BME280;3040;42.654;23.296;2023-01-15T07:19:37;94603.28;;;6.00;74.36
6024;BME280;3040;42.654;23.296;2023-01-15T07:22:06;94622.03;;;6.12;73.90
6024;BME280;3040;42.654;23.296;2023-01-15T07:24:33;94618.31;;;5.64;75.56
6024;BME280;3040;42.654;23.296;2023-01-15T07:27:00;94625.31;;;5.82;76.09
6024;BME280;3040;42.654;23.296;2023-01-15T07:29:27;94629.25;;;6.21;75.40
6024;BME280;3040;42.654;23.296;2023-01-15T07:31:55;94522.63;;;5.72;74.07
6024;BME280;3040;42.654;23.296;2023-01-15T07:34:24;94610.63;;;6.26;74.74
6024;BME280;3040;42.654;23.296;2023-01-15T07:36:51;94628.84;;;6.58;73.33
6024;BME280;3040;42.654;23.296;2023-01-15T07:39:19;94626.47;;;6.48;73.87
6024;BME280;3040;42.654;23.296;2023-01-15T07:41:46;94628.19;;;6.52;73.39
6024;BME280;3040;42.654;23.296;2023-01-15T07:44:31;94620.56;;;6.73;72.28
6024;BME280;3040;42.654;23.296;2023-01-15T07:47:18;94625.81;;;6.42;74.14
6024;BME280;3040;42.654;23.296;2023-01-15T07:50:03;94629.41;;;6.46;73.90
6024;BME280;3040;42.654;23.296;2023-01-15T07:52:30;94558.16;;;6.33;73.66
6024;BME280;3040;42.654;23.296;2023-01-15T07:54:58;94615.91;;;6.26;74.09
6024;BME280;3040;42.654;23.296;2023-01-15T07:57:25;94612.94;;;6.72;72.53
6024;BME280;3040;42.654;23.296;2023-01-15T07:59:52;94622.22;;;6.69;72.37
6024;BME280;3040;42.654;23.296;2023-01-15T08:02:19;94618.28;;;6.89;70.96
6024;BME280;3040;42.654;23.296;2023-01-15T08:04:46;94616.22;;;6.77;70.14
6024;BME280;3040;42.654;23.296;2023-01-15T08:07:13;94620.94;;;7.94;66.25
6024;BME280;3040;42.654;23.296;2023-01-15T08:09:41;94620.31;;;8.66;64.83
6024;BME280;3040;42.654;23.296;2023-01-15T08:12:10;94630.44;;;9.27;62.53
6024;BME280;3040;42.654;23.296;2023-01-15T08:15:08;94629.53;;;10.03;58.73
6024;BME280;3040;42.654;23.296;2023-01-15T08:17:39;94626.00;;;10.19;57.22
6024;BME280;3040;42.654;23.296;2023-01-15T08:20:08;94634.25;;;10.27;57.44
6024;BME280;3040;42.654;23.296;2023-01-15T08:22:35;94645.78;;;10.84;55.14
6024;BME280;3040;42.654;23.296;2023-01-15T08:25:06;94639.69;;;11.41;53.89
6024;BME280;3040;42.654;23.296;2023-01-15T08:27:35;94643.38;;;11.61;52.80
6024;BME280;3040;42.654;23.296;2023-01-15T08:30:03;94625.38;;;11.46;52.94
6024;BME280;3040;42.654;23.296;2023-01-15T08:32:30;94553.34;;;11.18;52.60
6024;BME280;3040;42.654;23.296;2023-01-15T08:34:57;94640.81;;;11.76;52.80
6024;BME280;3040;42.654;23.296;2023-01-15T08:37:24;94644.72;;;11.79;51.73
6024;BME280;3040;42.654;23.296;2023-01-15T08:39:51;94648.47;;;11.66;53.05
6024;BME280;3040;42.654;23.296;2023-01-15T08:42:18;94651.25;;;11.57;53.53
6024;BME280;3040;42.654;23.296;2023-01-15T08:44:47;94643.66;;;11.35;53.09
6024;BME280;3040;42.654;23.296;2023-01-15T08:47:14;94637.59;;;10.89;53.52
6024;BME280;3040;42.654;23.296;2023-01-15T08:49:41;94632.69;;;10.79;54.26
6024;BME280;3040;42.654;23.296;2023-01-15T08:52:08;94640.34;;;10.48;54.96
6024;BME280;3040;42.654;23.296;2023-01-15T08:54:35;94632.94;;;10.33;54.80
6024;BME280;3040;42.654;23.296;2023-01-15T08:57:02;94639.81;;;10.54;53.83
6024;BME280;3040;42.654;23.296;2023-01-15T08:59:29;94634.72;;;10.61;54.09
6024;BME280;3040;42.654;23.296;2023-01-15T09:01:57;94634.59;;;10.79;56.75
6024;BME280;3040;42.654;23.296;2023-01-15T09:04:24;94632.91;;;11.19;53.29
6024;BME280;3040;42.654;23.296;2023-01-15T09:06:51;94652.56;;;11.39;52.50
6024;BME280;3040;42.654;23.296;2023-01-15T09:09:18;94634.69;;;11.64;52.68
6024;BME280;3040;42.654;23.296;2023-01-15T09:11:45;94608.75;;;12.25;51.11
6024;BME280;3040;42.654;23.296;2023-01-15T09:14:13;94639.44;;;12.59;48.30
6024;BME280;3040;42.654;23.296;2023-01-15T09:16:41;94614.91;;;12.53;47.82
6024;BME280;3040;42.654;23.296;2023-01-15T09:19:09;94590.25;;;12.44;47.70
6024;BME280;3040;42.654;23.296;2023-01-15T09:21:37;94633.34;;;12.58;47.19
6024;BME280;3040;42.654;23.296;2023-01-15T09:24:04;94625.66;;;12.57;48.03
6024;BME280;3040;42.654;23.296;2023-01-15T09:26:32;94623.41;;;12.87;48.41
6024;BME280;3040;42.654;23.296;2023-01-15T09:29:00;94623.69;;;12.97;46.75
6024;BME280;3040;42.654;23.296;2023-01-15T09:31:28;94620.38;;;12.45;48.17
6024;BME280;3040;42.654;23.296;2023-01-15T09:33:56;94609.66;;;12.29;48.82
6024;BME280;3040;42.654;23.296;2023-01-15T09:36:26;94604.69;;;12.15;49.07
6024;BME280;3040;42.654;23.296;2023-01-15T09:38:53;94602.88;;;11.79;49.83
6024;BME280;3040;42.654;23.296;2023-01-15T09:41:23;94603.19;;;11.41;51.16
6024;BME280;3040;42.654;23.296;2023-01-15T09:44:22;94589.84;;;11.05;52.88
6024;BME280;3040;42.654;23.296;2023-01-15T09:47:00;94588.59;;;10.90;52.64
6024;BME280;3040;42.654;23.296;2023-01-15T09:49:50;94584.59;;;10.84;54.07
6024;BME280;3040;42.654;23.296;2023-01-15T09:52:27;94572.97;;;10.56;54.39
6024;BME280;3040;42.654;23.296;2023-01-15T09:55:02;94558.72;;;10.28;55.03
6024;BME280;3040;42.654;23.296;2023-01-15T09:57:31;94565.63;;;10.41;55.41
6024;BME280;3040;42.654;23.296;2023-01-15T09:59:59;94557.66;;;10.41;54.75
6024;BME280;3040;42.654;23.296;2023-01-15T10:02:34;94548.63;;;10.54;55.09
6024;BME280;3040;42.654;23.296;2023-01-15T10:05:08;94553.97;;;10.66;54.50
6024;BME280;3040;42.654;23.296;2023-01-15T10:07:43;94537.50;;;10.40;55.16
6024;BME280;3040;42.654;23.296;2023-01-15T10:10:13;94497.50;;;10.15;54.81
6024;BME280;3040;42.654;23.296;2023-01-15T10:12:44;94499.44;;;9.53;57.57
6024;BME280;3040;42.654;23.296;2023-01-15T10:15:34;94515.63;;;9.60;58.45
6024;BME280;3040;42.654;23.296;2023-01-15T10:18:04;94526.03;;;9.65;58.78
6024;BME280;3040;42.654;23.296;2023-01-15T10:20:50;94509.28;;;9.73;58.62
6024;BME280;3040;42.654;23.296;2023-01-15T10:23:33;94458.66;;;9.57;58.53
6024;BME280;3040;42.654;23.296;2023-01-15T10:26:09;94504.81;;;10.39;57.92
6024;BME280;3040;42.654;23.296;2023-01-15T10:28:57;94490.34;;;11.34;57.38
6024;BME280;3040;42.654;23.296;2023-01-15T10:31:33;94513.09;;;11.96;52.94
6024;BME280;3040;42.654;23.296;2023-01-15T10:34:16;94499.19;;;12.89;50.36
6024;BME280;3040;42.654;23.296;2023-01-15T10:36:51;94494.69;;;13.25;48.72
6024;BME280;3040;42.654;23.296;2023-01-15T10:39:25;94482.22;;;13.83;47.40
6024;BME280;3040;42.654;23.296;2023-01-15T10:42:03;94473.63;;;13.93;45.49
6024;BME280;3040;42.654;23.296;2023-01-15T10:44:41;94464.34;;;13.33;47.41
6024;BME280;3040;42.654;23.296;2023-01-15T10:47:12;94480.53;;;13.40;47.63
6024;BME280;3040;42.654;23.296;2023-01-15T10:49:41;94472.78;;;13.70;47.69
6024;BME280;3040;42.654;23.296;2023-01-15T10:52:18;94469.25;;;14.23;47.40
6024;BME280;3040;42.654;23.296;2023-01-15T10:54:53;94473.13;;;14.26;44.60
6024;BME280;3040;42.654;23.296;2023-01-15T10:57:40;94466.72;;;14.31;45.19
6024;BME280;3040;42.654;23.296;2023-01-15T11:00:11;94460.50;;;14.04;45.12
6024;BME280;3040;42.654;23.296;2023-01-15T11:02:41;94454.03;;;13.51;46.70
6024;BME280;3040;42.654;23.296;2023-01-15T11:05:13;94454.59;;;13.40;47.93
6024;BME280;3040;42.654;23.296;2023-01-15T11:07:43;94446.91;;;13.39;47.67
6024;BME280;3040;42.654;23.296;2023-01-15T11:10:14;94442.97;;;13.68;48.75
6024;BME280;3040;42.654;23.296;2023-01-15T11:12:47;94435.97;;;13.63;47.02
6024;BME280;3040;42.654;23.296;2023-01-15T11:15:32;94444.66;;;13.76;47.00
6024;BME280;3040;42.654;23.296;2023-01-15T11:18:22;94436.03;;;14.05;45.44
6024;BME280;3040;42.654;23.296;2023-01-15T11:21:12;94422.09;;;14.80;45.16
6024;BME280;3040;42.654;23.296;2023-01-15T11:23:40;94429.78;;;14.82;43.46
6024;BME280;3040;42.654;23.296;2023-01-15T11:26:16;94425.09;;;14.75;42.72
6024;BME280;3040;42.654;23.296;2023-01-15T11:28:44;94428.66;;;14.60;44.31
6024;BME280;3040;42.654;23.296;2023-01-15T11:31:13;94431.41;;;14.90;44.21
6024;BME280;3040;42.654;23.296;2023-01-15T11:33:43;94411.63;;;14.72;44.50
6024;BME280;3040;42.654;23.296;2023-01-15T11:36:19;94408.78;;;14.61;44.13
6024;BME280;3040;42.654;23.296;2023-01-15T11:38:48;94383.75;;;13.85;44.53
6024;BME280;3040;42.654;23.296;2023-01-15T11:41:20;94385.41;;;13.93;45.92
6024;BME280;3040;42.654;23.296;2023-01-15T11:43:55;94405.22;;;14.53;43.81
6024;BME280;3040;42.654;23.296;2023-01-15T11:46:39;94397.91;;;14.50;44.32
6024;BME280;3040;42.654;23.296;2023-01-15T11:49:24;94382.16;;;14.94;43.19
6024;BME280;3040;42.654;23.296;2023-01-15T11:52:12;94397.91;;;15.52;42.34
6024;BME280;3040;42.654;23.296;2023-01-15T11:54:45;94383.66;;;15.78;41.47
6024;BME280;3040;42.654;23.296;2023-01-15T11:57:24;94391.06;;;15.58;41.32
6024;BME280;3040;42.654;23.296;2023-01-15T11:59:52;94387.06;;;15.45;41.48
6024;BME280;3040;42.654;23.296;2023-01-15T12:02:28;94383.66;;;15.18;41.72
6024;BME280;3040;42.654;23.296;2023-01-15T12:04:58;94388.28;;;15.51;41.63
6024;BME280;3040;42.654;23.296;2023-01-15T12:07:28;94390.47;;;14.89;42.76
6024;BME280;3040;42.654;23.296;2023-01-15T12:10:18;94388.53;;;14.86;43.23
6024;BME280;3040;42.654;23.296;2023-01-15T12:13:16;94382.78;;;15.11;42.42
6024;BME280;3040;42.654;23.296;2023-01-15T12:15:51;94376.41;;;14.96;42.34
6024;BME280;3040;42.654;23.296;2023-01-15T12:18:51;94377.56;;;15.51;41.44
6024;BME280;3040;42.654;23.296;2023-01-15T12:21:47;94369.19;;;15.53;41.29
6024;BME280;3040;42.654;23.296;2023-01-15T12:24:36;94374.72;;;15.37;41.46
6024;BME280;3040;42.654;23.296;2023-01-15T12:30:24;94359.81;;;14.60;43.78
6024;BME280;3040;42.654;23.296;2023-01-15T12:33:02;94360.72;;;14.68;43.72
6024;BME280;3040;42.654;23.296;2023-01-15T12:35:37;94362.28;;;14.69;43.54
6024;BME280;3040;42.654;23.296;2023-01-15T12:38:11;94359.81;;;14.15;45.24
6024;BME280;3040;42.654;23.296;2023-01-15T12:40:47;94271.06;;;13.64;45.19
6024;BME280;3040;42.654;23.296;2023-01-15T12:43:18;94356.69;;;14.09;45.63
6024;BME280;3040;42.654;23.296;2023-01-15T12:46:09;94343.63;;;14.76;44.30
6024;BME280;3040;42.654;23.296;2023-01-15T12:48:42;94355.09;;;15.03;43.70
6024;BME280;3040;42.654;23.296;2023-01-15T12:51:13;94346.38;;;15.36;43.07
6024;BME280;3040;42.654;23.296;2023-01-15T12:53:46;94340.09;;;15.25;42.76
6024;BME280;3040;42.654;23.296;2023-01-15T12:56:20;94347.81;;;15.30;42.51
6024;BME280;3040;42.654;23.296;2023-01-15T12:58:51;94330.38;;;15.43;43.44
6024;BME280;3040;42.654;23.296;2023-01-15T13:01:25;94317.09;;;14.41;44.96
6024;BME280;3040;42.654;23.296;2023-01-15T13:04:02;94322.13;;;13.59;47.67
6024;BME280;3040;42.654;23.296;2023-01-15T13:06:31;94322.00;;;13.13;49.12
6024;BME280;3040;42.654;23.296;2023-01-15T13:09:02;94322.66;;;12.09;51.70
6024;BME280;3040;42.654;23.296;2023-01-15T13:11:32;94317.66;;;11.76;53.26
6024;BME280;3040;42.654;23.296;2023-01-15T13:13:58;94319.81;;;11.58;54.19
6024;BME280;3040;42.654;23.296;2023-01-15T13:16:36;94318.22;;;11.26;54.48
6024;BME280;3040;42.654;23.296;2023-01-15T13:19:16;94318.34;;;10.77;56.16
6024;BME280;3040;42.654;23.296;2023-01-15T13:21:46;94290.25;;;10.40;57.08
6024;BME280;3040;42.654;23.296;2023-01-15T13:24:31;94318.06;;;10.30;58.90
6024;BME280;3040;42.654;23.296;2023-01-15T13:27:12;94181.69;;;9.08;59.71
6024;BME280;3040;42.654;23.296;2023-01-15T13:29:55;94300.72;;;9.88;59.31
6024;BME280;3040;42.654;23.296;2023-01-15T13:32:30;94295.75;;;9.86;59.45
6024;BME280;3040;42.654;23.296;2023-01-15T13:35:04;94296.94;;;9.64;60.42
6024;BME280;3040;42.654;23.296;2023-01-15T13:37:38;94292.84;;;9.67;60.85
6024;BME280;3040;42.654;23.296;2023-01-15T13:40:12;94294.84;;;9.70;60.44
6024;BME280;3040;42.654;23.296;2023-01-15T13:42:45;94284.22;;;9.70;60.40
6024;BME280;3040;42.654;23.296;2023-01-15T13:45:28;94286.09;;;9.69;60.62
6024;BME280;3040;42.654;23.296;2023-01-15T13:48:03;94291.81;;;9.59;60.43